createdAt,value
2022-12-20T00:00:00.135Z,11.1
2022-12-20T00:01:00.685Z,11.1
2022-12-20T00:02:00.393Z,11.1
2022-12-20T00:03:00.881Z,11.1
2022-12-20T00:04:00.503Z,11.1
2022-12-20T00:05:00.164Z,11.1
2022-12-20T00:06:00.648Z,11.2
2022-12-20T00:07:00.245Z,11.1
2022-12-20T00:08:00.872Z,11.2
2022-12-20T00:09:00.455Z,11.2
2022-12-20T00:10:00.130Z,11.2
2022-12-20T00:11:00.631Z,11.2
2022-12-20T00:12:00.219Z,11.2
2022-12-20T00:13:00.828Z,11.3
2022-12-20T00:14:00.419Z,11.3
2022-12-20T00:15:00.013Z,11.3
2022-12-20T00:16:00.597Z,11.3
2022-12-20T00:17:00.193Z,11.3
2022-12-20T00:18:00.844Z,11.3
2022-12-20T00:19:00.408Z,11.3
2022-12-20T00:19:59.978Z,11.3
2022-12-20T00:21:00.552Z,11.3
2022-12-20T00:22:00.140Z,11.4
2022-12-20T00:23:00.767Z,11.3
2022-12-20T00:24:00.380Z,11.3
2022-12-20T00:24:59.930Z,11.4
2022-12-20T00:26:00.502Z,11.3
2022-12-20T00:27:00.115Z,11.4
2022-12-20T00:28:00.683Z,11.4
2022-12-20T00:29:00.296Z,11.4
2022-12-20T00:30:00.857Z,11.4
2022-12-20T00:31:00.515Z,11.4
2022-12-20T00:32:00.145Z,11.4
2022-12-20T00:33:00.881Z,11.5
2022-12-20T00:34:00.324Z,11.5
2022-12-20T00:35:00.877Z,11.5
2022-12-20T00:36:00.486Z,11.4
2022-12-20T00:37:00.123Z,11.4
2022-12-20T00:38:00.658Z,11.4
2022-12-20T00:39:00.292Z,11.4
2022-12-20T00:40:00.860Z,11.4
2022-12-20T00:41:00.448Z,11.5
2022-12-20T00:42:00.043Z,11.5
2022-12-20T00:43:00.619Z,11.4
2022-12-20T00:44:00.226Z,11.5
2022-12-20T00:45:00.800Z,11.6
2022-12-20T00:46:00.406Z,11.5
2022-12-20T00:47:00.085Z,11.5
2022-12-20T00:48:00.595Z,11.5
2022-12-20T00:49:00.202Z,11.6
2022-12-20T00:50:00.780Z,11.6
2022-12-20T00:51:00.376Z,11.6
2022-12-20T00:51:59.954Z,11.7
2022-12-20T00:53:00.525Z,11.7
2022-12-20T00:54:00.152Z,11.6
2022-12-20T00:55:00.694Z,11.6
2022-12-20T00:56:00.320Z,11.6
2022-12-20T00:57:00.865Z,11.6
2022-12-20T00:58:00.459Z,11.6
2022-12-20T00:59:00.127Z,11.7
2022-12-20T01:00:00.642Z,11.6
2022-12-20T01:01:00.277Z,11.6
2022-12-20T01:02:01.038Z,11.6
2022-12-20T01:03:00.824Z,11.7
2022-12-20T01:04:00.090Z,11.6
2022-12-20T01:05:00.647Z,11.7
2022-12-20T01:06:00.261Z,11.6
2022-12-20T01:07:00.821Z,11.6
2022-12-20T01:08:00.412Z,11.6
2022-12-20T01:09:00.002Z,11.5
2022-12-20T01:10:00.598Z,11.5
2022-12-20T01:11:00.226Z,11.6
2022-12-20T01:12:00.803Z,11.5
2022-12-20T01:13:00.391Z,11.6
2022-12-20T01:13:59.969Z,11.5
2022-12-20T01:15:00.566Z,11.5
2022-12-20T01:16:00.219Z,11.6
2022-12-20T01:17:00.809Z,11.5
2022-12-20T01:18:00.381Z,11.5
2022-12-20T01:18:59.951Z,11.5
2022-12-20T01:20:00.563Z,11.5
2022-12-20T01:21:00.168Z,11.4
2022-12-20T01:22:00.762Z,11.5
2022-12-20T01:23:00.359Z,11.4
2022-12-20T01:23:59.939Z,11.4
2022-12-20T01:25:00.511Z,11.5
2022-12-20T01:26:00.105Z,11.5
2022-12-20T01:27:00.701Z,11.5
2022-12-20T01:28:00.318Z,11.6
2022-12-20T01:29:00.904Z,11.6
2022-12-20T01:30:00.494Z,11.7
2022-12-20T01:31:00.175Z,11.7
2022-12-20T01:32:00.732Z,11.7
2022-12-20T01:33:00.313Z,11.7
2022-12-20T01:33:59.903Z,11.7
2022-12-20T01:35:00.484Z,11.7
2022-12-20T01:36:00.130Z,11.7
2022-12-20T01:37:00.664Z,11.6
2022-12-20T01:38:00.259Z,11.6
2022-12-20T01:39:00.848Z,11.6
2022-12-20T01:40:00.432Z,11.7
2022-12-20T01:41:00.029Z,11.7
2022-12-20T01:42:00.632Z,11.7
2022-12-20T01:43:00.222Z,11.7
2022-12-20T01:44:00.837Z,11.6
2022-12-20T01:45:00.435Z,11.6
2022-12-20T01:46:00.120Z,11.6
2022-12-20T01:47:00.621Z,11.6
2022-12-20T01:48:00.290Z,11.5
2022-12-20T01:49:00.804Z,11.5
2022-12-20T01:50:00.392Z,11.5
2022-12-20T01:50:59.979Z,11.5
2022-12-20T01:52:00.587Z,11.4
2022-12-20T01:53:00.193Z,11.4
2022-12-20T01:54:00.759Z,11.4
2022-12-20T01:55:00.349Z,11.4
2022-12-20T01:55:59.935Z,11.4
2022-12-20T01:57:00.547Z,11.4
2022-12-20T01:58:00.158Z,11.3
2022-12-20T01:59:00.726Z,11.4
2022-12-20T02:00:00.346Z,11.4
2022-12-20T02:00:59.908Z,11.4
2022-12-20T02:02:00.660Z,11.3
2022-12-20T02:03:00.294Z,11.4
2022-12-20T02:04:00.700Z,11.3
2022-12-20T02:05:00.285Z,11.4
2022-12-20T02:06:00.861Z,11.4
2022-12-20T02:07:00.456Z,11.4
2022-12-20T02:08:00.110Z,11.4
2022-12-20T02:09:00.644Z,11.5
2022-12-20T02:10:00.238Z,11.5
2022-12-20T02:11:00.810Z,11.5
2022-12-20T02:12:00.431Z,11.5
2022-12-20T02:13:00.030Z,11.5
2022-12-20T02:14:00.630Z,11.4
2022-12-20T02:15:00.247Z,11.5
2022-12-20T02:16:00.830Z,11.5
2022-12-20T02:17:00.486Z,11.4
2022-12-20T02:18:00.052Z,11.4
2022-12-20T02:19:00.648Z,11.4
2022-12-20T02:20:00.251Z,11.3
2022-12-20T02:21:00.814Z,11.4
2022-12-20T02:22:00.412Z,11.4
2022-12-20T02:23:00.000Z,11.4
2022-12-20T02:24:00.598Z,11.3
2022-12-20T02:25:00.188Z,11.3
2022-12-20T02:26:00.760Z,11.3
2022-12-20T02:27:00.353Z,11.3
2022-12-20T02:27:59.933Z,11.3
2022-12-20T02:29:00.528Z,11.3
2022-12-20T02:30:00.169Z,11.3
2022-12-20T02:31:00.700Z,11.2
2022-12-20T02:32:00.480Z,11.3
2022-12-20T02:33:00.928Z,11.2
2022-12-20T02:34:00.540Z,11.2
2022-12-20T02:35:00.128Z,11.1
2022-12-20T02:36:00.671Z,11.2
2022-12-20T02:37:00.281Z,11
2022-12-20T02:38:00.860Z,11.1
2022-12-20T02:39:00.491Z,11.1
2022-12-20T02:40:00.112Z,11.1
2022-12-20T02:41:00.665Z,11.1
2022-12-20T02:42:00.261Z,11.1
2022-12-20T02:43:00.847Z,11.1
2022-12-20T02:44:00.463Z,11.1
2022-12-20T02:45:00.082Z,11.1
2022-12-20T02:46:00.721Z,11
2022-12-20T02:47:00.283Z,11
2022-12-20T02:48:00.887Z,11
2022-12-20T02:49:00.547Z,11
2022-12-20T02:50:00.172Z,11
2022-12-20T02:51:00.708Z,11
2022-12-20T02:52:00.298Z,10.9
2022-12-20T02:53:00.880Z,10.9
2022-12-20T02:54:00.480Z,10.9
2022-12-20T02:55:00.082Z,10.9
2022-12-20T02:56:00.667Z,10.9
2022-12-20T02:57:00.264Z,10.9
2022-12-20T02:58:01.052Z,11
2022-12-20T02:59:00.654Z,11
2022-12-20T03:00:00.133Z,10.9
2022-12-20T03:01:00.731Z,10.9
2022-12-20T03:02:00.522Z,11
2022-12-20T03:03:00.965Z,10.9
2022-12-20T03:04:00.644Z,10.9
2022-12-20T03:05:00.106Z,10.9
2022-12-20T03:06:00.699Z,10.8
2022-12-20T03:07:00.297Z,10.9
2022-12-20T03:08:00.881Z,10.9
2022-12-20T03:09:00.469Z,10.8
2022-12-20T03:10:00.125Z,10.8
2022-12-20T03:11:00.670Z,10.9
2022-12-20T03:12:00.267Z,10.9
2022-12-20T03:13:00.901Z,10.9
2022-12-20T03:14:00.506Z,10.8
2022-12-20T03:15:00.095Z,10.8
2022-12-20T03:16:00.689Z,10.8
2022-12-20T03:17:00.404Z,10.8
2022-12-20T03:18:00.850Z,10.8
2022-12-20T03:19:00.445Z,10.8
2022-12-20T03:20:00.100Z,10.8
2022-12-20T03:21:00.639Z,10.8
2022-12-20T03:22:00.235Z,10.8
2022-12-20T03:23:00.809Z,10.8
2022-12-20T03:24:00.393Z,10.7
2022-12-20T03:24:59.988Z,10.6
2022-12-20T03:26:00.585Z,10.5
2022-12-20T03:27:00.206Z,10.4
2022-12-20T03:28:00.760Z,10.4
2022-12-20T03:29:00.353Z,10.4
2022-12-20T03:29:59.930Z,10.3
2022-12-20T03:31:00.579Z,10.4
2022-12-20T03:32:00.194Z,10.3
2022-12-20T03:33:00.771Z,10.3
2022-12-20T03:34:00.375Z,10.3
2022-12-20T03:34:59.958Z,10.3
2022-12-20T03:36:00.566Z,10.3
2022-12-20T03:37:00.183Z,10.3
2022-12-20T03:38:00.738Z,10.3
2022-12-20T03:39:00.333Z,10.3
2022-12-20T03:39:59.901Z,10.3
2022-12-20T03:41:00.488Z,10.3
2022-12-20T03:42:00.103Z,10.3
2022-12-20T03:43:00.662Z,10.2
2022-12-20T03:44:00.367Z,10.2
2022-12-20T03:45:00.846Z,10.2
2022-12-20T03:46:00.497Z,10.2
2022-12-20T03:47:00.116Z,10.2
2022-12-20T03:48:00.684Z,10.2
2022-12-20T03:49:00.306Z,10.1
2022-12-20T03:49:59.919Z,10.1
2022-12-20T03:51:00.443Z,10.1
2022-12-20T03:52:00.059Z,10
2022-12-20T03:53:00.618Z,10
2022-12-20T03:54:00.227Z,9.9
2022-12-20T03:55:00.826Z,10
2022-12-20T03:56:00.439Z,9.9
2022-12-20T03:57:00.005Z,9.9
2022-12-20T03:58:00.583Z,9.9
2022-12-20T03:59:00.199Z,10
2022-12-20T04:00:00.758Z,10
2022-12-20T04:01:00.352Z,9.9
2022-12-20T04:02:00.059Z,9.9
2022-12-20T04:03:00.599Z,10
2022-12-20T04:04:00.281Z,10
2022-12-20T04:05:00.802Z,10
2022-12-20T04:06:00.397Z,10
2022-12-20T04:06:59.983Z,10
2022-12-20T04:08:00.592Z,10
2022-12-20T04:09:00.183Z,10
2022-12-20T04:10:00.779Z,10
2022-12-20T04:11:00.370Z,10
2022-12-20T04:11:59.943Z,10
2022-12-20T04:13:00.530Z,9.9
2022-12-20T04:14:00.136Z,10
2022-12-20T04:15:00.905Z,10
2022-12-20T04:16:01.312Z,10.1
2022-12-20T04:17:00.082Z,10.1
2022-12-20T04:18:00.524Z,10
2022-12-20T04:19:00.138Z,10.1
2022-12-20T04:20:00.732Z,10.1
2022-12-20T04:21:00.350Z,10.1
2022-12-20T04:22:05.000Z,10.1
2022-12-20T04:23:00.462Z,10.1
2022-12-20T04:24:00.092Z,10.1
2022-12-20T04:25:00.664Z,10.2
2022-12-20T04:26:00.280Z,10.1
2022-12-20T04:27:00.844Z,10.2
2022-12-20T04:28:00.432Z,10.1
2022-12-20T04:29:00.034Z,10.1
2022-12-20T04:30:00.606Z,10.1
2022-12-20T04:31:00.335Z,10.1
2022-12-20T04:32:00.811Z,10.1
2022-12-20T04:33:00.412Z,10.1
2022-12-20T04:33:59.993Z,10.1
2022-12-20T04:35:00.572Z,10
2022-12-20T04:36:00.190Z,10
2022-12-20T04:37:00.744Z,10
2022-12-20T04:38:00.334Z,10
2022-12-20T04:38:59.917Z,10
2022-12-20T04:40:00.535Z,10
2022-12-20T04:41:00.215Z,10
2022-12-20T04:42:00.708Z,10
2022-12-20T04:43:00.295Z,10
2022-12-20T04:44:00.883Z,10
2022-12-20T04:45:00.472Z,10
2022-12-20T04:46:00.213Z,10
2022-12-20T04:47:00.758Z,10
2022-12-20T04:48:09.338Z,10
2022-12-20T04:49:00.870Z,10
2022-12-20T04:50:00.525Z,10
2022-12-20T04:51:00.136Z,9.9
2022-12-20T04:52:00.689Z,10
2022-12-20T04:53:00.303Z,10
2022-12-20T04:54:00.865Z,10
2022-12-20T04:55:00.456Z,10
2022-12-20T04:56:00.089Z,10
2022-12-20T04:57:00.621Z,10.1
2022-12-20T04:58:05.422Z,10.1
2022-12-20T04:59:00.817Z,10.1
2022-12-20T05:00:00.416Z,10.1
2022-12-20T05:01:00.021Z,10.1
2022-12-20T05:02:00.748Z,10
2022-12-20T05:03:00.489Z,10
2022-12-20T05:04:00.869Z,10
2022-12-20T05:05:00.524Z,10
2022-12-20T05:06:00.084Z,10
2022-12-20T05:07:00.640Z,10
2022-12-20T05:08:00.227Z,10.1
2022-12-20T05:09:00.825Z,10
2022-12-20T05:10:00.457Z,10
2022-12-20T05:10:59.997Z,10
2022-12-20T05:12:00.614Z,10
2022-12-20T05:13:04.162Z,10
2022-12-20T05:14:00.756Z,10
2022-12-20T05:15:00.374Z,10
2022-12-20T05:15:59.957Z,10
2022-12-20T05:17:00.507Z,9.9
2022-12-20T05:18:00.107Z,9.9
2022-12-20T05:19:00.689Z,10
2022-12-20T05:20:00.308Z,9.9
2022-12-20T05:21:00.853Z,9.9
2022-12-20T05:22:00.442Z,9.9
2022-12-20T05:23:00.035Z,9.8
2022-12-20T05:24:00.611Z,9.9
2022-12-20T05:25:00.233Z,9.9
2022-12-20T05:26:00.789Z,9.9
2022-12-20T05:27:00.384Z,10
2022-12-20T05:27:59.994Z,9.9
2022-12-20T05:29:00.541Z,9.8
2022-12-20T05:30:00.165Z,9.9
2022-12-20T05:31:00.802Z,9.9
2022-12-20T05:32:00.378Z,9.9
2022-12-20T05:32:59.961Z,9.9
2022-12-20T05:34:00.544Z,9.9
2022-12-20T05:35:00.171Z,9.9
2022-12-20T05:36:00.746Z,9.9
2022-12-20T05:37:00.353Z,9.9
2022-12-20T05:37:59.937Z,10
2022-12-20T05:39:04.110Z,9.9
2022-12-20T05:40:00.108Z,9.9
2022-12-20T05:41:00.725Z,10
2022-12-20T05:42:00.322Z,10
2022-12-20T05:42:59.905Z,9.8
2022-12-20T05:44:00.541Z,9.8
2022-12-20T05:45:00.143Z,9.8
2022-12-20T05:46:00.720Z,9.8
2022-12-20T05:47:00.417Z,9.8
2022-12-20T05:48:00.883Z,9.8
2022-12-20T05:49:00.501Z,9.8
2022-12-20T05:50:00.115Z,9.8
2022-12-20T05:51:00.727Z,9.9
2022-12-20T05:52:00.312Z,9.8
2022-12-20T05:53:03.559Z,9.8
2022-12-20T05:54:00.445Z,9.9
2022-12-20T05:55:00.072Z,9.9
2022-12-20T05:56:00.654Z,9.9
2022-12-20T05:57:00.251Z,9.9
2022-12-20T05:58:00.827Z,9.9
2022-12-20T05:59:00.427Z,9.9
2022-12-20T06:00:00.083Z,9.9
2022-12-20T06:01:00.620Z,9.9
2022-12-20T06:02:00.362Z,9.9
2022-12-20T06:03:01.049Z,9.9
2022-12-20T06:04:00.508Z,9.9
2022-12-20T06:05:00.032Z,10
2022-12-20T06:06:00.619Z,9.9
2022-12-20T06:07:00.209Z,9.9
2022-12-20T06:08:00.792Z,9.9
2022-12-20T06:09:00.399Z,9.9
2022-12-20T06:10:00.026Z,9.9
2022-12-20T06:11:00.562Z,9.9
2022-12-20T06:12:00.150Z,10
2022-12-20T06:13:00.735Z,10
2022-12-20T06:14:00.367Z,10
2022-12-20T06:14:59.935Z,10
2022-12-20T06:16:00.611Z,10
2022-12-20T06:17:00.137Z,10.1
2022-12-20T06:18:00.739Z,10.1
2022-12-20T06:19:00.345Z,10.1
2022-12-20T06:19:59.917Z,10.1
2022-12-20T06:21:00.482Z,10
2022-12-20T06:22:00.097Z,10.1
2022-12-20T06:23:00.647Z,10.1
2022-12-20T06:24:00.232Z,10.1
2022-12-20T06:25:00.820Z,10.1
2022-12-20T06:26:00.412Z,10.1
2022-12-20T06:27:00.001Z,10
2022-12-20T06:28:00.574Z,10.1
2022-12-20T06:29:00.188Z,10.1
2022-12-20T06:30:00.743Z,10.2
2022-12-20T06:31:00.334Z,10.2
2022-12-20T06:32:00.086Z,10.2
2022-12-20T06:33:00.496Z,10.3
2022-12-20T06:34:00.105Z,10.3
2022-12-20T06:35:00.673Z,10.2
2022-12-20T06:36:00.287Z,10.3
2022-12-20T06:37:00.864Z,10.2
2022-12-20T06:38:00.459Z,10.2
2022-12-20T06:39:03.357Z,10.3
2022-12-20T06:40:00.634Z,10.3
2022-12-20T06:41:00.232Z,10.2
2022-12-20T06:42:00.800Z,10.3
2022-12-20T06:43:00.411Z,10.3
2022-12-20T06:43:59.979Z,10.3
2022-12-20T06:45:00.539Z,10.3
2022-12-20T06:46:00.294Z,10.4
2022-12-20T06:47:00.719Z,10.4
2022-12-20T06:48:00.332Z,10.4
2022-12-20T06:49:00.913Z,10.4
2022-12-20T06:50:00.504Z,10.4
2022-12-20T06:51:00.156Z,10.4
2022-12-20T06:52:00.762Z,10.3
2022-12-20T06:53:00.328Z,10.4
2022-12-20T06:53:59.968Z,10.4
2022-12-20T06:55:00.503Z,10.3
2022-12-20T06:56:00.147Z,10.4
2022-12-20T06:57:00.679Z,10.4
2022-12-20T06:58:00.268Z,10.4
2022-12-20T06:59:00.841Z,10.4
2022-12-20T07:00:00.461Z,10.4
2022-12-20T07:01:00.147Z,10.4
2022-12-20T07:02:00.830Z,10.4
2022-12-20T07:03:00.359Z,10.4
2022-12-20T07:04:00.893Z,10.4
2022-12-20T07:05:00.515Z,10.4
2022-12-20T07:06:00.131Z,10.5
2022-12-20T07:07:00.649Z,10.4
2022-12-20T07:08:00.243Z,10.4
2022-12-20T07:09:00.816Z,10.4
2022-12-20T07:10:00.445Z,10.4
2022-12-20T07:10:59.979Z,10.5
2022-12-20T07:12:00.557Z,10.5
2022-12-20T07:13:00.152Z,10.5
2022-12-20T07:14:00.751Z,10.5
2022-12-20T07:15:00.368Z,10.5
2022-12-20T07:15:59.943Z,10.6
2022-12-20T07:17:00.560Z,10.5
2022-12-20T07:18:00.146Z,10.6
2022-12-20T07:19:00.724Z,10.5
2022-12-20T07:20:00.337Z,10.6
2022-12-20T07:21:00.929Z,10.5
2022-12-20T07:22:00.532Z,10.5
2022-12-20T07:23:00.139Z,10.5
2022-12-20T07:24:00.704Z,10.6
2022-12-20T07:25:00.301Z,10.6
2022-12-20T07:26:00.899Z,10.5
2022-12-20T07:27:00.552Z,10.5
2022-12-20T07:28:00.119Z,10.5
2022-12-20T07:29:00.698Z,10.5
2022-12-20T07:30:00.287Z,10.5
2022-12-20T07:31:00.862Z,10.5
2022-12-20T07:32:00.573Z,10.5
2022-12-20T07:33:00.122Z,10.5
2022-12-20T07:34:00.669Z,10.5
2022-12-20T07:35:00.278Z,10.6
2022-12-20T07:36:00.869Z,10.6
2022-12-20T07:37:00.502Z,10.6
2022-12-20T07:38:00.118Z,10.6
2022-12-20T07:39:00.657Z,10.6
2022-12-20T07:40:00.254Z,10.5
2022-12-20T07:41:00.823Z,10.6
2022-12-20T07:42:00.520Z,10.6
2022-12-20T07:43:00.046Z,10.6
2022-12-20T07:44:00.643Z,10.6
2022-12-20T07:45:00.246Z,10.7
2022-12-20T07:46:00.841Z,10.7
2022-12-20T07:47:00.457Z,10.6
2022-12-20T07:48:05.157Z,10.7
2022-12-20T07:49:00.576Z,10.6
2022-12-20T07:50:00.209Z,10.6
2022-12-20T07:51:00.766Z,10.7
2022-12-20T07:52:00.448Z,10.7
2022-12-20T07:52:59.940Z,10.6
2022-12-20T07:54:00.530Z,10.7
2022-12-20T07:55:00.158Z,10.7
2022-12-20T07:56:00.700Z,10.8
2022-12-20T07:57:00.353Z,10.8
2022-12-20T07:58:00.885Z,10.7
2022-12-20T07:59:00.526Z,10.7
2022-12-20T08:00:00.126Z,10.7
2022-12-20T08:01:00.803Z,10.7
2022-12-20T08:02:04.465Z,10.8
2022-12-20T08:03:00.096Z,10.8
2022-12-20T08:04:00.559Z,10.8
2022-12-20T08:05:00.160Z,10.8
2022-12-20T08:06:00.743Z,10.9
2022-12-20T08:07:00.351Z,10.8
2022-12-20T08:08:00.024Z,10.9
2022-12-20T08:09:00.483Z,10.8
2022-12-20T08:10:00.086Z,10.8
2022-12-20T08:11:00.670Z,10.8
2022-12-20T08:12:00.285Z,10.8
2022-12-20T08:13:00.849Z,10.9
2022-12-20T08:14:00.434Z,10.9
2022-12-20T08:15:00.038Z,10.9
2022-12-20T08:16:00.598Z,10.9
2022-12-20T08:17:00.284Z,10.9
2022-12-20T08:18:00.761Z,10.9
2022-12-20T08:19:00.352Z,10.9
2022-12-20T08:19:59.941Z,10.9
2022-12-20T08:21:00.528Z,10.9
2022-12-20T08:22:00.140Z,10.9
2022-12-20T08:23:00.691Z,10.8
2022-12-20T08:24:00.319Z,10.9
2022-12-20T08:25:00.865Z,10.9
2022-12-20T08:26:00.458Z,10.9
2022-12-20T08:27:00.059Z,10.9
2022-12-20T08:28:00.619Z,10.9
2022-12-20T08:29:00.228Z,10.9
2022-12-20T08:30:00.792Z,10.9
2022-12-20T08:31:00.432Z,10.8
2022-12-20T08:31:59.960Z,10.8
2022-12-20T08:33:00.544Z,10.8
2022-12-20T08:34:00.160Z,10.8
2022-12-20T08:35:00.716Z,10.8
2022-12-20T08:36:00.302Z,10.8
2022-12-20T08:37:00.902Z,10.8
2022-12-20T08:38:00.512Z,10.8
2022-12-20T08:39:00.117Z,10.8
2022-12-20T08:40:00.749Z,10.8
2022-12-20T08:41:00.350Z,10.8
2022-12-20T08:41:59.906Z,10.8
2022-12-20T08:43:03.662Z,10.9
2022-12-20T08:44:00.054Z,10.9
2022-12-20T08:45:00.669Z,10.9
2022-12-20T08:46:00.295Z,11
2022-12-20T08:47:00.928Z,11
2022-12-20T08:48:00.523Z,11.1
2022-12-20T08:49:00.132Z,11
2022-12-20T08:50:00.693Z,11
2022-12-20T08:51:00.365Z,11.1
2022-12-20T08:52:01.006Z,11.1
2022-12-20T08:53:00.651Z,11.2
2022-12-20T08:54:00.117Z,11.2
2022-12-20T08:55:01.857Z,11.2
2022-12-20T08:56:00.832Z,11.2
2022-12-20T08:57:00.418Z,11.2
2022-12-20T08:58:00.008Z,11.2
2022-12-20T08:59:00.604Z,11.3
2022-12-20T09:00:00.730Z,11.3
2022-12-20T09:01:04.486Z,11.2
2022-12-20T09:02:01.006Z,11.2
2022-12-20T09:03:00.840Z,11.3
2022-12-20T09:04:00.315Z,11.3
2022-12-20T09:05:00.749Z,11.3
2022-12-20T09:06:00.377Z,11.3
2022-12-20T09:06:59.961Z,11.4
2022-12-20T09:08:00.513Z,11.4
2022-12-20T09:09:00.126Z,11.5
2022-12-20T09:10:00.710Z,11.5
2022-12-20T09:11:00.313Z,11.5
2022-12-20T09:12:00.916Z,11.5
2022-12-20T09:13:00.510Z,11.5
2022-12-20T09:14:00.131Z,11.5
2022-12-20T09:15:00.681Z,11.6
2022-12-20T09:16:00.318Z,11.5
2022-12-20T09:17:00.874Z,11.6
2022-12-20T09:18:00.483Z,11.6
2022-12-20T09:19:04.935Z,11.6
2022-12-20T09:20:00.621Z,11.6
2022-12-20T09:21:00.233Z,11.6
2022-12-20T09:22:00.822Z,11.6
2022-12-20T09:23:00.410Z,11.6
2022-12-20T09:24:00.013Z,11.6
2022-12-20T09:25:00.591Z,11.6
2022-12-20T09:26:00.190Z,11.7
2022-12-20T09:27:00.937Z,11.7
2022-12-20T09:28:00.438Z,11.7
2022-12-20T09:28:59.998Z,11.7
2022-12-20T09:30:00.587Z,11.7
2022-12-20T09:31:00.281Z,11.7
2022-12-20T09:32:00.784Z,11.7
2022-12-20T09:33:07.604Z,11.7
2022-12-20T09:33:59.964Z,11.7
2022-12-20T09:35:00.549Z,11.8
2022-12-20T09:36:00.169Z,11.8
2022-12-20T09:37:00.740Z,11.8
2022-12-20T09:38:00.345Z,11.9
2022-12-20T09:38:59.906Z,11.9
2022-12-20T09:40:00.500Z,11.9
2022-12-20T09:41:00.115Z,11.9
2022-12-20T09:42:00.701Z,11.9
2022-12-20T09:43:00.298Z,11.8
2022-12-20T09:44:00.914Z,11.9
2022-12-20T09:45:00.508Z,11.8
2022-12-20T09:46:00.210Z,11.8
2022-12-20T09:47:05.076Z,11.8
2022-12-20T09:48:00.265Z,11.8
2022-12-20T09:49:00.858Z,11.8
2022-12-20T09:50:00.455Z,11.8
2022-12-20T09:51:00.053Z,11.8
2022-12-20T09:52:00.630Z,11.8
2022-12-20T09:53:00.234Z,11.8
2022-12-20T09:54:00.932Z,11.8
2022-12-20T09:55:00.456Z,11.8
2022-12-20T09:56:00.042Z,11.8
2022-12-20T09:57:00.629Z,11.8
2022-12-20T09:58:00.244Z,11.7
2022-12-20T09:59:00.804Z,11.7
2022-12-20T10:00:00.445Z,11.7
2022-12-20T10:00:59.988Z,11.6
2022-12-20T10:02:13.101Z,11.6
2022-12-20T10:03:08.505Z,11.6
2022-12-20T10:04:00.793Z,11.7
2022-12-20T10:05:00.620Z,11.6
2022-12-20T10:06:00.293Z,11.6
2022-12-20T10:07:00.629Z,11.7
2022-12-20T10:08:00.221Z,11.6
2022-12-20T10:09:00.827Z,11.7
2022-12-20T10:10:00.441Z,11.7
2022-12-20T10:11:00.038Z,11.7
2022-12-20T10:12:00.587Z,11.7
2022-12-20T10:13:00.173Z,11.7
2022-12-20T10:14:00.763Z,11.7
2022-12-20T10:15:00.373Z,11.7
2022-12-20T10:16:00.010Z,11.7
2022-12-20T10:17:00.499Z,11.8
2022-12-20T10:18:00.110Z,11.7
2022-12-20T10:19:00.668Z,11.8
2022-12-20T10:20:00.286Z,11.8
2022-12-20T10:21:00.833Z,11.7
2022-12-20T10:22:00.437Z,11.8
2022-12-20T10:23:00.039Z,11.8
2022-12-20T10:24:00.622Z,11.7
2022-12-20T10:25:00.233Z,11.7
2022-12-20T10:26:00.809Z,11.7
2022-12-20T10:27:00.427Z,11.7
2022-12-20T10:28:00.003Z,11.7
2022-12-20T10:29:00.575Z,11.7
2022-12-20T10:30:00.174Z,11.7
2022-12-20T10:31:00.792Z,11.7
2022-12-20T10:32:00.432Z,11.8
2022-12-20T10:32:59.980Z,11.8
2022-12-20T10:34:00.566Z,11.8
2022-12-20T10:35:00.211Z,11.7
2022-12-20T10:36:00.754Z,11.8
2022-12-20T10:37:00.410Z,11.8
2022-12-20T10:38:08.254Z,11.8
2022-12-20T10:39:00.463Z,11.8
2022-12-20T10:40:05.333Z,11.8
2022-12-20T10:42:00.164Z,11.8
2022-12-20T10:43:00.755Z,11.9
2022-12-20T10:44:00.358Z,11.9
2022-12-20T10:44:59.943Z,11.9
2022-12-20T10:46:00.518Z,11.8
2022-12-20T10:47:00.235Z,11.9
2022-12-20T10:48:00.750Z,11.9
2022-12-20T10:49:00.335Z,11.9
2022-12-20T10:49:59.921Z,11.8
2022-12-20T10:52:00.032Z,11.9
2022-12-20T10:53:00.620Z,12
2022-12-20T10:54:00.261Z,12
2022-12-20T10:55:00.793Z,12
2022-12-20T10:56:00.382Z,12.1
2022-12-20T10:56:59.991Z,12.1
2022-12-20T10:58:00.562Z,12.2
2022-12-20T10:59:00.151Z,12.2
2022-12-20T11:00:00.744Z,12.3
2022-12-20T11:01:00.342Z,12.3
2022-12-20T11:01:59.992Z,12.3
2022-12-20T11:03:00.740Z,12.3
2022-12-20T11:04:00.272Z,12.3
2022-12-20T11:05:00.749Z,12.3
2022-12-20T11:06:00.388Z,12.3
2022-12-20T11:07:00.058Z,12.4
2022-12-20T11:09:01.037Z,12.5
2022-12-20T11:10:00.749Z,12.4
2022-12-20T11:11:00.396Z,12.4
2022-12-20T11:11:59.960Z,12.4
2022-12-20T11:13:00.559Z,12.4
2022-12-20T11:14:00.152Z,12.5
2022-12-20T11:15:00.740Z,12.5
2022-12-20T11:16:00.346Z,12.5
2022-12-20T11:16:59.939Z,12.5
2022-12-20T11:18:00.505Z,12.5
2022-12-20T11:19:00.157Z,12.4
2022-12-20T11:20:00.747Z,12.4
2022-12-20T11:21:00.337Z,12.3
2022-12-20T11:22:00.908Z,12.4
2022-12-20T11:23:00.492Z,12.4
2022-12-20T11:24:00.122Z,12.4
2022-12-20T11:25:00.654Z,12.4
2022-12-20T11:26:00.251Z,12.5
2022-12-20T11:27:00.836Z,12.5
2022-12-20T11:28:00.426Z,12.5
2022-12-20T11:29:00.037Z,12.5
2022-12-20T11:30:00.622Z,12.5
2022-12-20T11:31:00.301Z,12.5
2022-12-20T11:32:00.829Z,12.6
2022-12-20T11:33:00.446Z,12.6
2022-12-20T11:34:00.050Z,12.6
2022-12-20T11:35:00.638Z,12.6
2022-12-20T11:36:00.260Z,12.5
2022-12-20T11:37:00.828Z,12.5
2022-12-20T11:38:04.136Z,12.6
2022-12-20T11:38:59.955Z,12.6
2022-12-20T11:40:00.588Z,12.5
2022-12-20T11:41:00.180Z,12.5
2022-12-20T11:42:00.763Z,12.5
2022-12-20T11:43:00.379Z,12.5
2022-12-20T11:44:27.148Z,12.5
2022-12-20T11:45:06.830Z,12.4
2022-12-20T11:46:00.041Z,12.4
2022-12-20T11:47:00.720Z,12.5
2022-12-20T11:48:00.308Z,12.4
2022-12-20T11:49:00.863Z,12.3
2022-12-20T11:50:00.485Z,12.2
2022-12-20T11:51:00.099Z,12.3
2022-12-20T11:52:00.706Z,12.3
2022-12-20T11:53:00.291Z,12.3
2022-12-20T11:54:00.875Z,12.3
2022-12-20T11:55:00.565Z,12.3
2022-12-20T11:56:00.106Z,12.3
2022-12-20T11:57:00.692Z,12.3
2022-12-20T11:58:21.597Z,12.3
2022-12-20T11:59:00.831Z,12.4
2022-12-20T12:00:00.447Z,12.4
2022-12-20T12:01:00.051Z,12.4
2022-12-20T12:02:00.706Z,12.4
2022-12-20T12:03:00.340Z,12.4
2022-12-20T12:04:00.855Z,12.4
2022-12-20T12:05:00.494Z,12.5
2022-12-20T12:06:00.115Z,12.5
2022-12-20T12:07:00.685Z,12.6
2022-12-20T12:08:00.391Z,12.5
2022-12-20T12:09:00.855Z,12.5
2022-12-20T12:10:00.465Z,12.6
2022-12-20T12:11:00.057Z,12.6
2022-12-20T12:12:09.354Z,12.6
2022-12-20T12:13:00.179Z,12.7
2022-12-20T12:14:00.792Z,12.7
2022-12-20T12:15:00.417Z,12.6
2022-12-20T12:16:00.026Z,12.6
2022-12-20T12:17:00.685Z,12.7
2022-12-20T12:18:00.209Z,12.6
2022-12-20T12:19:00.783Z,12.7
2022-12-20T12:20:00.374Z,12.6
2022-12-20T12:21:02.233Z,12.5
2022-12-20T12:22:00.517Z,12.6
2022-12-20T12:23:00.131Z,12.5
2022-12-20T12:24:00.718Z,12.6
2022-12-20T12:25:00.305Z,12.6
2022-12-20T12:26:00.899Z,12.6
2022-12-20T12:27:00.500Z,12.6
2022-12-20T12:28:00.107Z,12.6
2022-12-20T12:29:00.661Z,12.6
2022-12-20T12:30:00.334Z,12.7
2022-12-20T12:31:00.869Z,12.7
2022-12-20T12:32:00.550Z,12.7
2022-12-20T12:33:00.102Z,12.7
2022-12-20T12:34:00.653Z,12.7
2022-12-20T12:35:00.256Z,12.7
2022-12-20T12:36:00.871Z,12.6
2022-12-20T12:37:00.487Z,12.7
2022-12-20T12:38:00.063Z,12.7
2022-12-20T12:39:02.477Z,12.7
2022-12-20T12:40:00.198Z,12.7
2022-12-20T12:41:00.811Z,12.7
2022-12-20T12:42:00.393Z,12.8
2022-12-20T12:42:59.979Z,12.8
2022-12-20T12:44:00.556Z,12.7
2022-12-20T12:45:00.182Z,12.8
2022-12-20T12:46:00.895Z,12.7
2022-12-20T12:47:00.393Z,12.7
2022-12-20T12:47:59.978Z,12.7
2022-12-20T12:49:00.550Z,12.7
2022-12-20T12:50:00.210Z,12.8
2022-12-20T12:51:00.751Z,12.9
2022-12-20T12:52:00.344Z,12.9
2022-12-20T12:52:59.922Z,12.8
2022-12-20T12:54:00.509Z,12.9
2022-12-20T12:55:00.112Z,12.9
2022-12-20T12:56:13.086Z,12.9
2022-12-20T12:57:00.294Z,13
2022-12-20T12:58:00.880Z,12.9
2022-12-20T12:59:00.464Z,12.9
2022-12-20T13:00:00.069Z,13
2022-12-20T13:01:00.719Z,13
2022-12-20T13:02:00.437Z,13
2022-12-20T13:03:01.016Z,13
2022-12-20T13:04:00.712Z,13
2022-12-20T13:05:00.153Z,13
2022-12-20T13:06:00.721Z,13
2022-12-20T13:07:00.338Z,13
2022-12-20T13:08:00.883Z,13
2022-12-20T13:09:00.481Z,13
2022-12-20T13:10:00.101Z,12.9
2022-12-20T13:11:00.668Z,12.9
2022-12-20T13:12:03.429Z,12.9
2022-12-20T13:13:00.802Z,12.9
2022-12-20T13:14:00.392Z,13
2022-12-20T13:14:59.977Z,13
2022-12-20T13:16:00.561Z,12.9
2022-12-20T13:17:19.501Z,12.8
2022-12-20T13:18:00.830Z,12.9
2022-12-20T13:19:00.401Z,12.8
2022-12-20T13:19:59.989Z,12.7
2022-12-20T13:21:00.589Z,12.7
2022-12-20T13:22:00.175Z,12.7
2022-12-20T13:23:00.763Z,12.7
2022-12-20T13:24:00.355Z,12.7
2022-12-20T13:24:59.929Z,12.6
2022-12-20T13:26:00.534Z,12.5
2022-12-20T13:27:00.123Z,12.6
2022-12-20T13:28:00.733Z,12.5
2022-12-20T13:29:00.332Z,12.5